sensor_id;sensor_type;location;lat;lon;timestamp;P1;durP1;ratioP1;P2;durP2;ratioP2
64936;SDS011;51452;47.698;19.050;2023-03-25T00:00:42;2.70;;;1.60;;
64936;SDS011;51452;47.698;19.050;2023-03-25T00:03:08;2.58;;;1.52;;
64936;SDS011;51452;47.698;19.050;2023-03-25T00:05:34;2.45;;;1.60;;
64936;SDS011;51452;47.698;19.050;2023-03-25T00:08:03;3.10;;;1.77;;
64936;SDS011;51452;47.698;19.050;2023-03-25T00:10:29;3.45;;;2.28;;
64936;SDS011;51452;47.698;19.050;2023-03-25T00:12:55;2.97;;;1.60;;
64936;SDS011;51452;47.698;19.050;2023-03-25T00:15:22;3.22;;;1.70;;
64936;SDS011;51452;47.698;19.050;2023-03-25T00:17:47;2.72;;;1.83;;
64936;SDS011;51452;47.698;19.050;2023-03-25T00:20:13;3.35;;;2.30;;
64936;SDS011;51452;47.698;19.050;2023-03-25T00:22:39;2.90;;;2.10;;
64936;SDS011;51452;47.698;19.050;2023-03-25T00:25:10;1.80;;;1.17;;
64936;SDS011;51452;47.698;19.050;2023-03-25T00:27:40;3.78;;;1.60;;
64936;SDS011;51452;47.698;19.050;2023-03-25T00:30:08;1.80;;;0.90;;
64936;SDS011;51452;47.698;19.050;2023-03-25T00:32:34;2.47;;;1.27;;
64936;SDS011;51452;47.698;19.050;2023-03-25T00:34:59;2.60;;;1.27;;
64936;SDS011;51452;47.698;19.050;2023-03-25T00:37:25;1.35;;;0.90;;
64936;SDS011;51452;47.698;19.050;2023-03-25T00:39:51;0.82;;;0.60;;
64936;SDS011;51452;47.698;19.050;2023-03-25T00:42:16;2.25;;;1.00;;
64936;SDS011;51452;47.698;19.050;2023-03-25T00:44:49;1.40;;;0.80;;
64936;SDS011;51452;47.698;19.050;2023-03-25T00:47:15;1.73;;;1.00;;
64936;SDS011;51452;47.698;19.050;2023-03-25T00:49:42;2.17;;;1.25;;
64936;SDS011;51452;47.698;19.050;2023-03-25T00:52:08;4.72;;;1.23;;
64936;SDS011;51452;47.698;19.050;2023-03-25T00:54:34;1.48;;;0.90;;
64936;SDS011;51452;47.698;19.050;2023-03-25T00:57:00;2.45;;;1.08;;
64936;SDS011;51452;47.698;19.050;2023-03-25T00:59:25;2.22;;;1.40;;
64936;SDS011;51452;47.698;19.050;2023-03-25T01:01:51;2.97;;;1.27;;
64936;SDS011;51452;47.698;19.050;2023-03-25T01:04:17;5.50;;;1.23;;
64936;SDS011;51452;47.698;19.050;2023-03-25T01:06:43;2.00;;;1.45;;
64936;SDS011;51452;47.698;19.050;2023-03-25T01:09:10;3.10;;;1.63;;
64936;SDS011;51452;47.698;19.050;2023-03-25T01:11:38;3.70;;;1.65;;
64936;SDS011;51452;47.698;19.050;2023-03-25T01:14:06;3.25;;;1.70;;
64936;SDS011;51452;47.698;19.050;2023-03-25T01:16:35;4.25;;;1.63;;
64936;SDS011;51452;47.698;19.050;2023-03-25T01:19:01;2.80;;;1.90;;
64936;SDS011;51452;47.698;19.050;2023-03-25T01:21:27;2.65;;;2.00;;
64936;SDS011;51452;47.698;19.050;2023-03-25T01:23:52;4.60;;;2.38;;
64936;SDS011;51452;47.698;19.050;2023-03-25T01:26:17;3.50;;;2.65;;
64936;SDS011;51452;47.698;19.050;2023-03-25T01:28:43;7.15;;;3.08;;
64936;SDS011;51452;47.698;19.050;2023-03-25T01:31:11;4.78;;;3.03;;
64936;SDS011;51452;47.698;19.050;2023-03-25T01:33:38;4.28;;;3.00;;
64936;SDS011;51452;47.698;19.050;2023-03-25T01:36:03;5.13;;;3.08;;
64936;SDS011;51452;47.698;19.050;2023-03-25T01:38:34;5.10;;;2.72;;
64936;SDS011;51452;47.698;19.050;2023-03-25T01:41:02;4.45;;;3.30;;
64936;SDS011;51452;47.698;19.050;2023-03-25T01:43:29;5.32;;;2.70;;
64936;SDS011;51452;47.698;19.050;2023-03-25T01:45:55;3.60;;;2.80;;
64936;SDS011;51452;47.698;19.050;2023-03-25T01:48:31;3.92;;;2.72;;
64936;SDS011;51452;47.698;19.050;2023-03-25T01:51:06;4.63;;;2.60;;
64936;SDS011;51452;47.698;19.050;2023-03-25T01:53:33;5.97;;;2.50;;
64936;SDS011;51452;47.698;19.050;2023-03-25T01:55:59;3.95;;;2.60;;
64936;SDS011;51452;47.698;19.050;2023-03-25T01:58:26;2.97;;;2.40;;
64936;SDS011;51452;47.698;19.050;2023-03-25T02:00:53;8.10;;;2.63;;
64936;SDS011;51452;47.698;19.050;2023-03-25T02:03:19;4.97;;;3.10;;
64936;SDS011;51452;47.698;19.050;2023-03-25T02:05:55;4.18;;;2.17;;
64936;SDS011;51452;47.698;19.050;2023-03-25T02:08:30;10.00;;;3.83;;
64936;SDS011;51452;47.698;19.050;2023-03-25T02:10:57;5.20;;;3.80;;
64936;SDS011;51452;47.698;19.050;2023-03-25T02:13:23;6.75;;;4.05;;
64936;SDS011;51452;47.698;19.050;2023-03-25T02:16:33;6.97;;;4.38;;
64936;SDS011;51452;47.698;19.050;2023-03-25T02:18:48;9.17;;;5.10;;
64936;SDS011;51452;47.698;19.050;2023-03-25T02:27:26;23.75;;;21.48;;
64936;SDS011;51452;47.698;19.050;2023-03-25T02:33:45;24.17;;;22.17;;
64936;SDS011;51452;47.698;19.050;2023-03-25T02:38:50;10.48;;;7.32;;
64936;SDS011;51452;47.698;19.050;2023-03-25T02:46:52;9.35;;;6.75;;
64936;SDS011;51452;47.698;19.050;2023-03-25T02:49:24;11.77;;;7.70;;
64936;SDS011;51452;47.698;19.050;2023-03-25T02:54:23;14.23;;;8.55;;
64936;SDS011;51452;47.698;19.050;2023-03-25T02:56:50;12.53;;;8.63;;
64936;SDS011;51452;47.698;19.050;2023-03-25T02:59:21;14.17;;;7.83;;
64936;SDS011;51452;47.698;19.050;2023-03-25T03:01:49;10.13;;;6.80;;
64936;SDS011;51452;47.698;19.050;2023-03-25T03:04:15;11.50;;;7.73;;
64936;SDS011;51452;47.698;19.050;2023-03-25T03:06:41;11.03;;;7.30;;
64936;SDS011;51452;47.698;19.050;2023-03-25T03:17:13;16.40;;;6.93;;
64936;SDS011;51452;47.698;19.050;2023-03-25T03:19:56;12.93;;;6.90;;
64936;SDS011;51452;47.698;19.050;2023-03-25T03:25:21;16.27;;;7.57;;
64936;SDS011;51452;47.698;19.050;2023-03-25T03:27:54;13.73;;;6.60;;
64936;SDS011;51452;47.698;19.050;2023-03-25T03:30:31;36.77;;;9.17;;
64936;SDS011;51452;47.698;19.050;2023-03-25T03:33:07;7.43;;;5.23;;
64936;SDS011;51452;47.698;19.050;2023-03-25T03:35:42;8.13;;;4.97;;
64936;SDS011;51452;47.698;19.050;2023-03-25T03:38:52;7.63;;;3.97;;
64936;SDS011;51452;47.698;19.050;2023-03-25T03:41:17;12.17;;;6.50;;
64936;SDS011;51452;47.698;19.050;2023-03-25T03:46:25;10.97;;;5.53;;
64936;SDS011;51452;47.698;19.050;2023-03-25T03:48:58;10.33;;;5.30;;
64936;SDS011;51452;47.698;19.050;2023-03-25T03:51:37;12.67;;;5.53;;
64936;SDS011;51452;47.698;19.050;2023-03-25T03:56:38;11.30;;;6.07;;
64936;SDS011;51452;47.698;19.050;2023-03-25T04:02:19;8.93;;;5.83;;
64936;SDS011;51452;47.698;19.050;2023-03-25T04:04:54;11.60;;;6.43;;
64936;SDS011;51452;47.698;19.050;2023-03-25T04:07:34;9.63;;;5.90;;
64936;SDS011;51452;47.698;19.050;2023-03-25T04:10:19;13.30;;;6.60;;
64936;SDS011;51452;47.698;19.050;2023-03-25T04:12:53;10.73;;;6.63;;
64936;SDS011;51452;47.698;19.050;2023-03-25T04:15:21;11.43;;;6.27;;
64936;SDS011;51452;47.698;19.050;2023-03-25T04:17:47;12.37;;;6.93;;
64936;SDS011;51452;47.698;19.050;2023-03-25T04:20:13;14.17;;;6.83;;
64936;SDS011;51452;47.698;19.050;2023-03-25T04:22:39;9.97;;;6.33;;
64936;SDS011;51452;47.698;19.050;2023-03-25T04:25:09;13.70;;;7.00;;
64936;SDS011;51452;47.698;19.050;2023-03-25T04:27:37;13.60;;;6.73;;
64936;SDS011;51452;47.698;19.050;2023-03-25T04:30:06;14.73;;;6.63;;
64936;SDS011;51452;47.698;19.050;2023-03-25T04:32:32;10.60;;;6.63;;
64936;SDS011;51452;47.698;19.050;2023-03-25T04:34:59;10.53;;;5.97;;
64936;SDS011;51452;47.698;19.050;2023-03-25T04:37:25;10.00;;;5.97;;
64936;SDS011;51452;47.698;19.050;2023-03-25T04:39:51;14.33;;;6.87;;
64936;SDS011;51452;47.698;19.050;2023-03-25T04:42:24;10.73;;;5.77;;
64936;SDS011;51452;47.698;19.050;2023-03-25T04:44:52;10.27;;;6.07;;
64936;SDS011;51452;47.698;19.050;2023-03-25T04:47:20;12.05;;;6.18;;
64936;SDS011;51452;47.698;19.050;2023-03-25T04:49:47;11.93;;;6.33;;
64936;SDS011;51452;47.698;19.050;2023-03-25T04:52:13;12.73;;;6.67;;
64936;SDS011;51452;47.698;19.050;2023-03-25T04:54:43;13.20;;;6.67;;
64936;SDS011;51452;47.698;19.050;2023-03-25T04:57:11;12.53;;;7.03;;
64936;SDS011;51452;47.698;19.050;2023-03-25T04:59:37;10.80;;;6.47;;
64936;SDS011;51452;47.698;19.050;2023-03-25T05:02:03;13.93;;;6.67;;
64936;SDS011;51452;47.698;19.050;2023-03-25T05:04:32;13.63;;;6.73;;
64936;SDS011;51452;47.698;19.050;2023-03-25T05:06:57;10.63;;;6.27;;
64936;SDS011;51452;47.698;19.050;2023-03-25T05:09:23;13.27;;;6.37;;
64936;SDS011;51452;47.698;19.050;2023-03-25T05:11:52;12.13;;;5.83;;
64936;SDS011;51452;47.698;19.050;2023-03-25T05:14:19;11.93;;;6.20;;
64936;SDS011;51452;47.698;19.050;2023-03-25T05:16:46;12.88;;;7.03;;
64936;SDS011;51452;47.698;19.050;2023-03-25T05:19:12;11.50;;;6.40;;
64936;SDS011;51452;47.698;19.050;2023-03-25T05:21:39;11.73;;;7.20;;
64936;SDS011;51452;47.698;19.050;2023-03-25T05:24:07;12.55;;;6.65;;
64936;SDS011;51452;47.698;19.050;2023-03-25T05:26:37;10.93;;;6.43;;
64936;SDS011;51452;47.698;19.050;2023-03-25T05:29:05;10.30;;;6.30;;
64936;SDS011;51452;47.698;19.050;2023-03-25T05:31:32;9.45;;;6.57;;
64936;SDS011;51452;47.698;19.050;2023-03-25T05:33:58;10.70;;;5.70;;
64936;SDS011;51452;47.698;19.050;2023-03-25T05:36:23;11.68;;;6.50;;
64936;SDS011;51452;47.698;19.050;2023-03-25T05:38:51;11.87;;;6.83;;
64936;SDS011;51452;47.698;19.050;2023-03-25T05:41:18;9.43;;;6.00;;
64936;SDS011;51452;47.698;19.050;2023-03-25T05:43:45;11.18;;;6.13;;
64936;SDS011;51452;47.698;19.050;2023-03-25T05:46:14;10.23;;;6.05;;
64936;SDS011;51452;47.698;19.050;2023-03-25T05:48:41;9.43;;;5.65;;
64936;SDS011;51452;47.698;19.050;2023-03-25T05:51:16;10.15;;;6.03;;
64936;SDS011;51452;47.698;19.050;2023-03-25T05:53:45;11.48;;;5.97;;
64936;SDS011;51452;47.698;19.050;2023-03-25T05:56:14;10.33;;;5.83;;
64936;SDS011;51452;47.698;19.050;2023-03-25T05:58:42;9.48;;;5.53;;
64936;SDS011;51452;47.698;19.050;2023-03-25T06:01:09;11.83;;;6.20;;
64936;SDS011;51452;47.698;19.050;2023-03-25T06:03:34;9.63;;;6.13;;
64936;SDS011;51452;47.698;19.050;2023-03-25T06:06:00;8.15;;;4.97;;
64936;SDS011;51452;47.698;19.050;2023-03-25T06:08:26;10.88;;;6.10;;
64936;SDS011;51452;47.698;19.050;2023-03-25T06:10:54;9.77;;;5.60;;
64936;SDS011;51452;47.698;19.050;2023-03-25T06:13:24;9.63;;;5.53;;
64936;SDS011;51452;47.698;19.050;2023-03-25T06:15:50;8.63;;;5.45;;
64936;SDS011;51452;47.698;19.050;2023-03-25T06:18:23;7.68;;;5.15;;
64936;SDS011;51452;47.698;19.050;2023-03-25T06:20:49;7.63;;;4.82;;
64936;SDS011;51452;47.698;19.050;2023-03-25T06:23:16;11.30;;;5.30;;
64936;SDS011;51452;47.698;19.050;2023-03-25T06:25:41;9.23;;;5.43;;
64936;SDS011;51452;47.698;19.050;2023-03-25T06:28:08;8.05;;;4.57;;
64936;SDS011;51452;47.698;19.050;2023-03-25T06:30:33;6.80;;;4.40;;
64936;SDS011;51452;47.698;19.050;2023-03-25T06:32:59;9.02;;;5.80;;
64936;SDS011;51452;47.698;19.050;2023-03-25T06:35:26;8.50;;;5.32;;
64936;SDS011;51452;47.698;19.050;2023-03-25T06:37:52;8.70;;;4.97;;
64936;SDS011;51452;47.698;19.050;2023-03-25T06:40:17;6.68;;;4.55;;
64936;SDS011;51452;47.698;19.050;2023-03-25T06:42:45;7.35;;;4.35;;
64936;SDS011;51452;47.698;19.050;2023-03-25T06:45:11;6.00;;;4.47;;
64936;SDS011;51452;47.698;19.050;2023-03-25T06:47:37;6.53;;;4.18;;
64936;SDS011;51452;47.698;19.050;2023-03-25T06:50:03;6.22;;;3.70;;
64936;SDS011;51452;47.698;19.050;2023-03-25T06:52:29;5.70;;;3.60;;
64936;SDS011;51452;47.698;19.050;2023-03-25T06:54:54;4.40;;;3.63;;
64936;SDS011;51452;47.698;19.050;2023-03-25T06:57:20;6.65;;;3.63;;
64936;SDS011;51452;47.698;19.050;2023-03-25T06:59:45;4.25;;;3.08;;
64936;SDS011;51452;47.698;19.050;2023-03-25T07:02:12;4.55;;;3.40;;
64936;SDS011;51452;47.698;19.050;2023-03-25T07:04:39;7.20;;;3.50;;
64936;SDS011;51452;47.698;19.050;2023-03-25T07:07:05;3.78;;;3.03;;
64936;SDS011;51452;47.698;19.050;2023-03-25T07:09:30;3.80;;;2.60;;
64936;SDS011;51452;47.698;19.050;2023-03-25T07:11:56;4.13;;;2.80;;
64936;SDS011;51452;47.698;19.050;2023-03-25T07:14:21;3.03;;;2.40;;
64936;SDS011;51452;47.698;19.050;2023-03-25T07:16:46;5.10;;;2.75;;
64936;SDS011;51452;47.698;19.050;2023-03-25T07:19:12;4.10;;;2.70;;
64936;SDS011;51452;47.698;19.050;2023-03-25T07:21:38;3.28;;;2.47;;
64936;SDS011;51452;47.698;19.050;2023-03-25T07:24:03;3.50;;;2.10;;
64936;SDS011;51452;47.698;19.050;2023-03-25T07:26:29;4.55;;;2.60;;
64936;SDS011;51452;47.698;19.050;2023-03-25T07:28:54;4.15;;;2.75;;
64936;SDS011;51452;47.698;19.050;2023-03-25T07:31:20;3.10;;;2.22;;
64936;SDS011;51452;47.698;19.050;2023-03-25T07:33:45;2.63;;;2.10;;
64936;SDS011;51452;47.698;19.050;2023-03-25T07:36:11;3.60;;;2.17;;
64936;SDS011;51452;47.698;19.050;2023-03-25T07:38:37;3.60;;;2.13;;
64936;SDS011;51452;47.698;19.050;2023-03-25T07:41:06;3.05;;;2.08;;
64936;SDS011;51452;47.698;19.050;2023-03-25T07:43:37;2.83;;;2.22;;
64936;SDS011;51452;47.698;19.050;2023-03-25T07:46:03;3.63;;;2.65;;
64936;SDS011;51452;47.698;19.050;2023-03-25T07:48:29;2.88;;;2.47;;
64936;SDS011;51452;47.698;19.050;2023-03-25T07:50:55;5.25;;;2.53;;
64936;SDS011;51452;47.698;19.050;2023-03-25T07:53:20;3.85;;;1.95;;
64936;SDS011;51452;47.698;19.050;2023-03-25T07:55:46;3.53;;;1.90;;
64936;SDS011;51452;47.698;19.050;2023-03-25T07:58:14;3.33;;;2.13;;
64936;SDS011;51452;47.698;19.050;2023-03-25T08:00:40;3.30;;;2.08;;
64936;SDS011;51452;47.698;19.050;2023-03-25T08:03:05;3.65;;;1.70;;
64936;SDS011;51452;47.698;19.050;2023-03-25T08:05:33;3.88;;;1.80;;
64936;SDS011;51452;47.698;19.050;2023-03-25T08:07:59;5.00;;;1.58;;
64936;SDS011;51452;47.698;19.050;2023-03-25T08:10:25;4.13;;;1.60;;
64936;SDS011;51452;47.698;19.050;2023-03-25T08:12:51;2.75;;;1.60;;
64936;SDS011;51452;47.698;19.050;2023-03-25T08:15:17;2.17;;;1.50;;
64936;SDS011;51452;47.698;19.050;2023-03-25T08:17:43;2.45;;;1.50;;
64936;SDS011;51452;47.698;19.050;2023-03-25T08:20:10;2.55;;;1.45;;
64936;SDS011;51452;47.698;19.050;2023-03-25T08:22:35;2.63;;;1.70;;
64936;SDS011;51452;47.698;19.050;2023-03-25T08:25:00;2.60;;;1.48;;
64936;SDS011;51452;47.698;19.050;2023-03-25T08:27:26;2.17;;;1.38;;
64936;SDS011;51452;47.698;19.050;2023-03-25T08:29:51;2.92;;;1.50;;
64936;SDS011;51452;47.698;19.050;2023-03-25T08:32:21;2.53;;;1.60;;
64936;SDS011;51452;47.698;19.050;2023-03-25T08:34:47;3.55;;;1.60;;
64936;SDS011;51452;47.698;19.050;2023-03-25T08:37:12;2.20;;;1.50;;
64936;SDS011;51452;47.698;19.050;2023-03-25T08:39:39;4.10;;;1.95;;
64936;SDS011;51452;47.698;19.050;2023-03-25T08:42:09;3.25;;;1.77;;
64936;SDS011;51452;47.698;19.050;2023-03-25T08:44:36;2.53;;;1.67;;
64936;SDS011;51452;47.698;19.050;2023-03-25T08:47:01;3.17;;;1.90;;
64936;SDS011;51452;47.698;19.050;2023-03-25T08:49:26;2.88;;;2.03;;
64936;SDS011;51452;47.698;19.050;2023-03-25T08:51:52;4.22;;;2.30;;
64936;SDS011;51452;47.698;19.050;2023-03-25T08:54:17;3.25;;;2.00;;
64936;SDS011;51452;47.698;19.050;2023-03-25T08:56:44;6.35;;;2.35;;
64936;SDS011;51452;47.698;19.050;2023-03-25T08:59:09;3.78;;;1.75;;
64936;SDS011;51452;47.698;19.050;2023-03-25T09:01:37;2.08;;;1.50;;
64936;SDS011;51452;47.698;19.050;2023-03-25T09:04:06;2.90;;;1.48;;
64936;SDS011;51452;47.698;19.050;2023-03-25T09:06:31;3.58;;;1.50;;
64936;SDS011;51452;47.698;19.050;2023-03-25T09:08:57;4.30;;;1.40;;
64936;SDS011;51452;47.698;19.050;2023-03-25T09:11:22;2.80;;;1.58;;
64936;SDS011;51452;47.698;19.050;2023-03-25T09:13:47;2.90;;;1.50;;
64936;SDS011;51452;47.698;19.050;2023-03-25T09:16:13;2.80;;;1.67;;
64936;SDS011;51452;47.698;19.050;2023-03-25T09:18:38;2.38;;;1.40;;
64936;SDS011;51452;47.698;19.050;2023-03-25T09:21:04;2.35;;;1.25;;
64936;SDS011;51452;47.698;19.050;2023-03-25T09:23:30;3.25;;;1.63;;
64936;SDS011;51452;47.698;19.050;2023-03-25T09:25:58;3.10;;;1.50;;
64936;SDS011;51452;47.698;19.050;2023-03-25T09:28:26;4.18;;;1.75;;
64936;SDS011;51452;47.698;19.050;2023-03-25T09:30:51;3.60;;;1.88;;
64936;SDS011;51452;47.698;19.050;2023-03-25T09:33:18;3.17;;;1.70;;
64936;SDS011;51452;47.698;19.050;2023-03-25T09:35:43;3.50;;;1.83;;
64936;SDS011;51452;47.698;19.050;2023-03-25T09:38:09;4.43;;;1.90;;
64936;SDS011;51452;47.698;19.050;2023-03-25T09:40:35;4.82;;;2.25;;
64936;SDS011;51452;47.698;19.050;2023-03-25T09:45:43;2.45;;;1.60;;
64936;SDS011;51452;47.698;19.050;2023-03-25T09:50:44;4.65;;;2.38;;
64936;SDS011;51452;47.698;19.050;2023-03-25T09:53:21;2.25;;;1.60;;
64936;SDS011;51452;47.698;19.050;2023-03-25T09:55:53;4.88;;;2.17;;
64936;SDS011;51452;47.698;19.050;2023-03-25T10:06:41;2.22;;;1.73;;
64936;SDS011;51452;47.698;19.050;2023-03-25T10:09:58;2.90;;;1.60;;
64936;SDS011;51452;47.698;19.050;2023-03-25T10:14:54;1.90;;;1.50;;
64936;SDS011;51452;47.698;19.050;2023-03-25T10:25:55;3.78;;;1.60;;
64936;SDS011;51452;47.698;19.050;2023-03-25T10:28:31;3.22;;;1.48;;
64936;SDS011;51452;47.698;19.050;2023-03-25T10:31:01;2.70;;;1.60;;
64936;SDS011;51452;47.698;19.050;2023-03-25T10:33:36;2.42;;;1.70;;
64936;SDS011;51452;47.698;19.050;2023-03-25T10:36:06;4.15;;;1.50;;
64936;SDS011;51452;47.698;19.050;2023-03-25T10:38:40;6.72;;;1.48;;
64936;SDS011;51452;47.698;19.050;2023-03-25T10:41:23;3.47;;;1.52;;
64936;SDS011;51452;47.698;19.050;2023-03-25T10:43:54;2.30;;;1.20;;
64936;SDS011;51452;47.698;19.050;2023-03-25T10:46:25;1.70;;;1.10;;
64936;SDS011;51452;47.698;19.050;2023-03-25T10:48:51;2.40;;;1.55;;
64936;SDS011;51452;47.698;19.050;2023-03-25T10:51:21;3.25;;;1.67;;
64936;SDS011;51452;47.698;19.050;2023-03-25T10:53:50;2.20;;;1.35;;
64936;SDS011;51452;47.698;19.050;2023-03-25T10:56:24;3.88;;;1.70;;
64936;SDS011;51452;47.698;19.050;2023-03-25T10:58:54;2.78;;;1.27;;
64936;SDS011;51452;47.698;19.050;2023-03-25T11:01:27;2.40;;;1.00;;
64936;SDS011;51452;47.698;19.050;2023-03-25T11:04:02;5.20;;;2.20;;
64936;SDS011;51452;47.698;19.050;2023-03-25T11:06:31;2.53;;;1.30;;
64936;SDS011;51452;47.698;19.050;2023-03-25T11:11:49;3.75;;;1.42;;
64936;SDS011;51452;47.698;19.050;2023-03-25T11:14:16;2.72;;;1.35;;
64936;SDS011;51452;47.698;19.050;2023-03-25T11:16:54;6.95;;;1.30;;
64936;SDS011;51452;47.698;19.050;2023-03-25T11:19:29;6.35;;;1.27;;
64936;SDS011;51452;47.698;19.050;2023-03-25T11:22:12;3.13;;;1.55;;
64936;SDS011;51452;47.698;19.050;2023-03-25T11:24:41;4.95;;;2.53;;
64936;SDS011;51452;47.698;19.050;2023-03-25T11:27:10;4.50;;;1.70;;
64936;SDS011;51452;47.698;19.050;2023-03-25T11:29:47;3.05;;;1.42;;
64936;SDS011;51452;47.698;19.050;2023-03-25T11:32:16;3.97;;;1.40;;
64936;SDS011;51452;47.698;19.050;2023-03-25T11:34:48;1.77;;;1.15;;
64936;SDS011;51452;47.698;19.050;2023-03-25T11:37:19;1.90;;;0.93;;
64936;SDS011;51452;47.698;19.050;2023-03-25T11:39:52;2.90;;;1.08;;
64936;SDS011;51452;47.698;19.050;2023-03-25T11:42:38;4.38;;;1.55;;
64936;SDS011;51452;47.698;19.050;2023-03-25T11:45:12;2.10;;;1.35;;
64936;SDS011;51452;47.698;19.050;2023-03-25T11:47:43;4.03;;;1.10;;
64936;SDS011;51452;47.698;19.050;2023-03-25T11:50:16;4.13;;;1.30;;
64936;SDS011;51452;47.698;19.050;2023-03-25T11:52:44;2.65;;;1.15;;
64936;SDS011;51452;47.698;19.050;2023-03-25T11:55:22;5.43;;;1.30;;
64936;SDS011;51452;47.698;19.050;2023-03-25T11:57:48;2.95;;;1.35;;
64936;SDS011;51452;47.698;19.050;2023-03-25T12:00:36;1.98;;;1.10;;
64936;SDS011;51452;47.698;19.050;2023-03-25T12:03:08;3.67;;;1.23;;
64936;SDS011;51452;47.698;19.050;2023-03-25T12:05:44;2.03;;;1.05;;
64936;SDS011;51452;47.698;19.050;2023-03-25T12:08:42;3.33;;;1.10;;
64936;SDS011;51452;47.698;19.050;2023-03-25T12:11:15;3.28;;;1.02;;
64936;SDS011;51452;47.698;19.050;2023-03-25T12:14:38;3.25;;;0.88;;
64936;SDS011;51452;47.698;19.050;2023-03-25T12:17:21;3.95;;;1.13;;
64936;SDS011;51452;47.698;19.050;2023-03-25T12:25:11;2.20;;;1.20;;
64936;SDS011;51452;47.698;19.050;2023-03-25T12:27:48;4.25;;;1.27;;
64936;SDS011;51452;47.698;19.050;2023-03-25T12:35:35;4.15;;;1.20;;
64936;SDS011;51452;47.698;19.050;2023-03-25T12:38:31;2.67;;;1.40;;
64936;SDS011;51452;47.698;19.050;2023-03-25T12:41:16;3.63;;;1.27;;
64936;SDS011;51452;47.698;19.050;2023-03-25T12:53:26;2.53;;;1.40;;
64936;SDS011;51452;47.698;19.050;2023-03-25T13:07:12;2.22;;;1.00;;
64936;SDS011;51452;47.698;19.050;2023-03-25T13:12:43;1.55;;;0.98;;
64936;SDS011;51452;47.698;19.050;2023-03-25T13:15:25;4.35;;;1.15;;
64936;SDS011;51452;47.698;19.050;2023-03-25T13:17:58;1.60;;;1.00;;
64936;SDS011;51452;47.698;19.050;2023-03-25T13:20:32;3.35;;;1.17;;
64936;SDS011;51452;47.698;19.050;2023-03-25T13:23:02;3.47;;;1.30;;
64936;SDS011;51452;47.698;19.050;2023-03-25T13:25:34;1.98;;;1.05;;
64936;SDS011;51452;47.698;19.050;2023-03-25T13:28:37;2.08;;;1.20;;
64936;SDS011;51452;47.698;19.050;2023-03-25T13:31:14;1.85;;;1.00;;
64936;SDS011;51452;47.698;19.050;2023-03-25T13:33:44;3.05;;;1.27;;
64936;SDS011;51452;47.698;19.050;2023-03-25T13:36:31;4.22;;;1.27;;
64936;SDS011;51452;47.698;19.050;2023-03-25T13:39:04;2.35;;;1.00;;
64936;SDS011;51452;47.698;19.050;2023-03-25T13:44:07;1.77;;;1.10;;
64936;SDS011;51452;47.698;19.050;2023-03-25T13:46:43;3.80;;;0.90;;
64936;SDS011;51452;47.698;19.050;2023-03-25T13:49:24;2.75;;;1.10;;
64936;SDS011;51452;47.698;19.050;2023-03-25T13:51:50;3.15;;;1.17;;
64936;SDS011;51452;47.698;19.050;2023-03-25T13:54:38;3.55;;;1.02;;
64936;SDS011;51452;47.698;19.050;2023-03-25T14:03:18;2.00;;;1.30;;
64936;SDS011;51452;47.698;19.050;2023-03-25T14:11:34;2.80;;;1.45;;
64936;SDS011;51452;47.698;19.050;2023-03-25T14:14:11;2.25;;;1.05;;
64936;SDS011;51452;47.698;19.050;2023-03-25T14:16:42;4.63;;;1.05;;
64936;SDS011;51452;47.698;19.050;2023-03-25T14:19:19;6.15;;;2.40;;
64936;SDS011;51452;47.698;19.050;2023-03-25T14:21:51;1.77;;;0.80;;
64936;SDS011;51452;47.698;19.050;2023-03-25T14:27:03;2.22;;;0.90;;
64936;SDS011;51452;47.698;19.050;2023-03-25T14:34:40;2.47;;;1.17;;
64936;SDS011;51452;47.698;19.050;2023-03-25T14:44:35;4.00;;;1.30;;
64936;SDS011;51452;47.698;19.050;2023-03-25T14:50:11;2.75;;;0.90;;
64936;SDS011;51452;47.698;19.050;2023-03-25T14:52:53;3.58;;;0.82;;
64936;SDS011;51452;47.698;19.050;2023-03-25T15:00:50;2.42;;;0.90;;
64936;SDS011;51452;47.698;19.050;2023-03-25T15:03:31;5.25;;;1.10;;
64936;SDS011;51452;47.698;19.050;2023-03-25T15:06:00;3.63;;;1.17;;
64936;SDS011;51452;47.698;19.050;2023-03-25T15:08:36;5.88;;;1.05;;
64936;SDS011;51452;47.698;19.050;2023-03-25T15:11:08;2.75;;;0.80;;
64936;SDS011;51452;47.698;19.050;2023-03-25T15:13:47;2.60;;;1.27;;
64936;SDS011;51452;47.698;19.050;2023-03-25T15:21:16;2.63;;;1.05;;
64936;SDS011;51452;47.698;19.050;2023-03-25T15:26:12;2.40;;;0.80;;
64936;SDS011;51452;47.698;19.050;2023-03-25T15:40:06;2.13;;;0.93;;
64936;SDS011;51452;47.698;19.050;2023-03-25T15:42:49;2.72;;;1.10;;
64936;SDS011;51452;47.698;19.050;2023-03-25T15:45:53;2.20;;;1.00;;
64936;SDS011;51452;47.698;19.050;2023-03-25T15:57:43;1.70;;;0.98;;
64936;SDS011;51452;47.698;19.050;2023-03-25T15:59:54;1.58;;;0.80;;
64936;SDS011;51452;47.698;19.050;2023-03-25T16:02:39;3.17;;;0.90;;
64936;SDS011;51452;47.698;19.050;2023-03-25T16:05:12;5.93;;;1.13;;
64936;SDS011;51452;47.698;19.050;2023-03-25T16:07:40;2.70;;;0.75;;
64936;SDS011;51452;47.698;19.050;2023-03-25T16:10:11;3.25;;;1.02;;
64936;SDS011;51452;47.698;19.050;2023-03-25T16:12:50;2.95;;;0.85;;
64936;SDS011;51452;47.698;19.050;2023-03-25T16:15:16;2.38;;;0.75;;
64936;SDS011;51452;47.698;19.050;2023-03-25T16:17:50;1.73;;;0.80;;
64936;SDS011;51452;47.698;19.050;2023-03-25T16:20:17;2.83;;;0.73;;
64936;SDS011;51452;47.698;19.050;2023-03-25T16:22:56;1.67;;;0.93;;
64936;SDS011;51452;47.698;19.050;2023-03-25T16:25:34;1.10;;;0.70;;
64936;SDS011;51452;47.698;19.050;2023-03-25T16:28:13;5.32;;;0.90;;
64936;SDS011;51452;47.698;19.050;2023-03-25T16:30:48;3.03;;;1.02;;
64936;SDS011;51452;47.698;19.050;2023-03-25T16:33:17;2.88;;;1.00;;
64936;SDS011;51452;47.698;19.050;2023-03-25T16:36:15;1.48;;;0.70;;
64936;SDS011;51452;47.698;19.050;2023-03-25T16:38:41;3.28;;;0.85;;
64936;SDS011;51452;47.698;19.050;2023-03-25T16:41:11;2.40;;;0.77;;
64936;SDS011;51452;47.698;19.050;2023-03-25T16:43:39;2.40;;;0.88;;
64936;SDS011;51452;47.698;19.050;2023-03-25T16:46:06;1.70;;;0.80;;
64936;SDS011;51452;47.698;19.050;2023-03-25T16:48:40;2.97;;;0.73;;
64936;SDS011;51452;47.698;19.050;2023-03-25T16:51:12;2.10;;;0.70;;
64936;SDS011;51452;47.698;19.050;2023-03-25T16:53:45;3.72;;;0.98;;
64936;SDS011;51452;47.698;19.050;2023-03-25T16:58:52;3.10;;;1.15;;
64936;SDS011;51452;47.698;19.050;2023-03-25T17:01:39;2.63;;;0.80;;
64936;SDS011;51452;47.698;19.050;2023-03-25T17:04:08;3.03;;;0.80;;
64936;SDS011;51452;47.698;19.050;2023-03-25T17:06:38;3.72;;;0.85;;
64936;SDS011;51452;47.698;19.050;2023-03-25T17:09:06;3.17;;;0.80;;
64936;SDS011;51452;47.698;19.050;2023-03-25T17:11:44;2.75;;;0.85;;
64936;SDS011;51452;47.698;19.050;2023-03-25T17:14:15;2.65;;;0.85;;
64936;SDS011;51452;47.698;19.050;2023-03-25T17:16:44;4.28;;;0.88;;
64936;SDS011;51452;47.698;19.050;2023-03-25T17:19:14;3.05;;;0.90;;
64936;SDS011;51452;47.698;19.050;2023-03-25T17:22:01;2.47;;;0.90;;
64936;SDS011;51452;47.698;19.050;2023-03-25T17:24:41;2.70;;;1.00;;
64936;SDS011;51452;47.698;19.050;2023-03-25T17:29:51;2.35;;;1.00;;
64936;SDS011;51452;47.698;19.050;2023-03-25T17:35:15;3.15;;;1.17;;
64936;SDS011;51452;47.698;19.050;2023-03-25T17:37:49;1.80;;;0.90;;
64936;SDS011;51452;47.698;19.050;2023-03-25T17:40:22;2.70;;;0.90;;
64936;SDS011;51452;47.698;19.050;2023-03-25T17:42:54;2.75;;;1.08;;
64936;SDS011;51452;47.698;19.050;2023-03-25T17:45:20;4.90;;;1.15;;